createdAt,value
2019-02-28T00:02:30.696Z,16.83
2019-02-28T00:07:34.105Z,14.77
2019-02-28T00:12:37.538Z,14.50
2019-02-28T00:17:43.596Z,14.30
2019-02-28T00:22:49.279Z,18.90
2019-02-28T00:27:52.682Z,18.37
2019-02-28T00:32:59.335Z,19.57
2019-02-28T00:38:01.586Z,18.10
2019-02-28T00:43:05.121Z,17.50
2019-02-28T00:48:08.550Z,18.47
2019-02-28T00:53:11.989Z,19.47
2019-02-28T00:58:15.416Z,18.97
2019-02-28T01:03:18.834Z,19.83
2019-02-28T01:08:22.816Z,20.57
2019-02-28T01:13:28.099Z,18.90
2019-02-28T01:18:34.472Z,18.53
2019-02-28T01:23:36.858Z,19.90
2019-02-28T01:28:40.284Z,21.83
2019-02-28T01:33:43.709Z,19.30
2019-02-28T01:38:47.146Z,19.70
2019-02-28T01:43:50.569Z,21.10
2019-02-28T01:48:54.522Z,23.77
2019-02-28T01:53:58.478Z,21.73
2019-02-28T01:59:01.924Z,21.87
2019-02-28T02:04:05.406Z,21.53
2019-02-28T02:09:11.083Z,26.00
2019-02-28T02:14:13.966Z,24.73
2019-02-28T02:19:18.491Z,22.90
2019-02-28T02:24:24.391Z,24.43
2019-02-28T02:29:27.990Z,27.93
2019-02-28T02:34:31.527Z,29.57
2019-02-28T02:39:34.964Z,25.67
2019-02-28T02:44:38.393Z,24.93
2019-02-28T02:49:41.851Z,31.43
2019-02-28T02:54:45.282Z,28.40
2019-02-28T02:59:48.694Z,29.10
2019-02-28T03:04:57.966Z,26.70
2019-02-28T03:09:57.277Z,28.97
2019-02-28T03:15:00.706Z,26.87
2019-02-28T03:20:07.543Z,32.83
2019-02-28T03:25:13.587Z,30.53
2019-02-28T03:30:27.695Z,29.30
2019-02-28T03:35:24.567Z,37.03
2019-02-28T03:40:27.989Z,30.17
2019-02-28T03:45:35.178Z,29.80
2019-02-28T03:50:36.616Z,33.43
2019-02-28T03:55:41.532Z,30.17
2019-02-28T04:00:45.199Z,32.33
2019-02-28T04:05:48.616Z,35.63
2019-02-28T04:10:54.793Z,33.10
2019-02-28T04:16:08.518Z,33.83
2019-02-28T04:21:02.359Z,34.03
2019-02-28T04:26:05.807Z,33.97
2019-02-28T04:31:09.236Z,31.27
2019-02-28T04:36:12.657Z,30.60
2019-02-28T04:41:16.087Z,30.93
2019-02-28T04:46:19.545Z,29.97
2019-02-28T04:51:22.963Z,31.33
2019-02-28T04:56:26.418Z,31.03
2019-02-28T05:01:29.842Z,32.77
2019-02-28T05:06:33.274Z,30.40
2019-02-28T05:11:36.709Z,31.07
2019-02-28T05:16:40.135Z,33.63
2019-02-28T05:21:43.550Z,33.53
2019-02-28T05:26:46.974Z,33.77
2019-02-28T05:31:50.394Z,35.67
2019-02-28T05:36:53.836Z,32.00
2019-02-28T05:41:57.322Z,36.33
2019-02-28T05:47:00.717Z,37.30
2019-02-28T05:52:04.134Z,38.67
2019-02-28T05:57:08.227Z,40.40
2019-02-28T06:02:12.450Z,37.43
2019-02-28T06:07:15.968Z,41.57
2019-02-28T06:12:19.402Z,38.60
2019-02-28T06:17:23.593Z,37.93
2019-02-28T06:22:27.012Z,45.50
2019-02-28T06:27:30.431Z,44.27
2019-02-28T06:32:33.887Z,46.47
2019-02-28T06:37:38.280Z,41.33
2019-02-28T06:42:43.565Z,43.43
2019-02-28T06:47:49.519Z,45.77
2019-02-28T06:52:52.922Z,50.73
2019-02-28T06:57:58.965Z,48.07
2019-02-28T07:03:03.340Z,51.47
2019-02-28T07:08:06.670Z,42.30
2019-02-28T07:13:11.858Z,48.10
2019-02-28T07:18:18.869Z,40.10
2019-02-28T07:23:22.205Z,39.87
2019-02-28T07:28:25.740Z,42.27
2019-02-28T07:33:29.174Z,42.63
2019-02-28T07:38:32.602Z,37.10
2019-02-28T07:43:36.031Z,38.57
2019-02-28T07:48:39.468Z,41.60
2019-02-28T07:53:42.885Z,45.87
2019-02-28T07:58:46.316Z,48.20
2019-02-28T08:03:49.758Z,49.27
2019-02-28T08:08:53.282Z,48.27
2019-02-28T08:13:56.726Z,44.43
2019-02-28T08:19:00.151Z,51.77
2019-02-28T08:24:05.532Z,46.67
2019-02-28T08:29:11.603Z,49.20
2019-02-28T08:34:14.037Z,48.30
2019-02-28T08:39:17.867Z,49.40
2019-02-28T08:44:23.836Z,51.00
2019-02-28T08:49:26.417Z,46.90
2019-02-28T08:54:29.833Z,47.83
2019-02-28T08:59:33.275Z,48.67
2019-02-28T09:04:41.217Z,44.00
2019-02-28T09:09:41.888Z,52.03
2019-02-28T09:14:45.323Z,45.00
2019-02-28T09:19:48.762Z,48.07
2019-02-28T09:24:52.222Z,47.50
2019-02-28T09:29:55.675Z,48.47
2019-02-28T09:34:59.083Z,46.20
2019-02-28T09:40:02.520Z,48.37
2019-02-28T09:45:09.086Z,48.97
2019-02-28T09:50:15.312Z,49.00
2019-02-28T09:55:18.821Z,42.53
2019-02-28T10:00:23.607Z,44.57
2019-02-28T10:05:27.077Z,53.00
2019-02-28T10:10:32.281Z,45.50
2019-02-28T10:15:38.753Z,51.57
2019-02-28T10:20:41.584Z,50.23
2019-02-28T10:25:45.795Z,56.73
2019-02-28T10:30:50.116Z,52.50
2019-02-28T10:35:54.403Z,49.03
2019-02-28T10:40:57.845Z,51.27
2019-02-28T10:46:01.269Z,46.27
2019-02-28T10:51:12.906Z,53.50
2019-02-28T10:56:10.495Z,50.53
2019-02-28T11:01:14.212Z,54.70
2019-02-28T11:06:17.656Z,52.10
2019-02-28T11:11:21.244Z,48.27
2019-02-28T11:16:24.715Z,50.53
2019-02-28T11:21:29.884Z,49.27
2019-02-28T11:26:34.023Z,54.43
2019-02-28T11:31:37.464Z,52.67
2019-02-28T11:36:40.919Z,51.43
2019-02-28T11:41:44.391Z,47.80
2019-02-28T11:46:47.977Z,50.83
2019-02-28T11:51:53.045Z,50.37
2019-02-28T11:56:56.573Z,45.37
2019-02-28T12:02:00.073Z,49.20
2019-02-28T12:07:03.488Z,48.73
2019-02-28T12:12:07.327Z,46.50
2019-02-28T12:17:12.251Z,48.33
2019-02-28T12:22:15.675Z,49.27
2019-02-28T12:27:19.191Z,50.40
2019-02-28T12:32:22.715Z,52.23
2019-02-28T12:37:26.191Z,48.73
2019-02-28T12:42:31.615Z,51.20
2019-02-28T12:47:34.876Z,52.23
2019-02-28T12:52:38.330Z,49.37
2019-02-28T12:57:41.859Z,50.23
2019-02-28T13:02:47.117Z,48.57
2019-02-28T13:07:50.852Z,45.53
2019-02-28T13:13:05.232Z,50.13
2019-02-28T13:17:59.474Z,50.00
2019-02-28T13:23:02.937Z,48.97
2019-02-28T13:28:07.955Z,47.93
2019-02-28T13:33:14.965Z,49.93
2019-02-28T13:38:19.141Z,49.80
2019-02-28T13:43:22.846Z,49.10
2019-02-28T13:48:32.997Z,45.57
2019-02-28T13:53:31.949Z,42.83
2019-02-28T13:58:35.493Z,44.77
2019-02-28T14:03:42.265Z,41.57
2019-02-28T14:08:46.236Z,42.63
2019-02-28T14:13:49.432Z,39.97
2019-02-28T14:18:54.639Z,38.57
2019-02-28T14:23:59.124Z,36.73
2019-02-28T14:29:02.837Z,41.97
2019-02-28T14:34:06.479Z,37.97
2019-02-28T14:39:11.589Z,40.63
2019-02-28T14:44:15.182Z,42.00
2019-02-28T14:49:20.346Z,38.37
2019-02-28T14:54:24.700Z,41.50
2019-02-28T14:59:31.236Z,41.77
2019-02-28T15:04:34.088Z,44.40
2019-02-28T15:09:37.541Z,38.97
2019-02-28T15:14:43.225Z,42.47
2019-02-28T15:19:46.283Z,42.07
2019-02-28T15:24:49.982Z,43.20
2019-02-28T15:29:55.499Z,43.67
2019-02-28T15:34:58.782Z,41.63
2019-02-28T15:40:02.283Z,43.07
2019-02-28T15:45:07.859Z,45.33
2019-02-28T15:50:16.324Z,43.77
2019-02-28T15:55:19.893Z,50.43
2019-02-28T16:00:25.955Z,48.87
2019-02-28T16:05:29.511Z,54.73
2019-02-28T16:10:35.055Z,50.47
2019-02-28T16:15:38.536Z,51.60
2019-02-28T16:20:41.986Z,49.00
2019-02-28T16:25:46.802Z,46.97
2019-02-28T16:30:50.777Z,51.20
2019-02-28T16:35:54.230Z,55.47
2019-02-28T16:41:00.730Z,53.83
2019-02-28T16:46:02.837Z,56.53
2019-02-28T16:51:06.271Z,53.77
2019-02-28T16:56:09.849Z,51.10
2019-02-28T17:01:13.350Z,53.13
2019-02-28T17:06:16.980Z,53.83
2019-02-28T17:11:20.429Z,53.50
2019-02-28T17:16:25.674Z,48.47
2019-02-28T17:21:29.154Z,44.67
2019-02-28T17:26:42.847Z,42.50
2019-02-28T17:31:49.326Z,39.60
2019-02-28T17:36:52.884Z,36.10
2019-02-28T17:41:56.307Z,38.90
2019-02-28T17:47:29.468Z,34.20
2019-02-28T17:52:41.627Z,35.70
2019-02-28T17:57:48.729Z,41.00
2019-02-28T18:03:17.723Z,36.10
2019-02-28T18:08:37.482Z,36.30
2019-02-28T18:13:55.267Z,38.30
2019-02-28T18:19:21.472Z,39.67
2019-02-28T18:24:34.716Z,37.83
2019-02-28T18:29:58.205Z,37.77
2019-02-28T18:35:01.630Z,42.30
2019-02-28T18:40:07.390Z,37.83
2019-02-28T18:45:12.183Z,37.27
2019-02-28T18:50:15.664Z,36.80
2019-02-28T18:55:19.068Z,35.60
2019-02-28T19:00:23.127Z,36.30
2019-02-28T19:05:27.490Z,38.83
2019-02-28T19:10:30.994Z,36.90
2019-02-28T19:15:34.507Z,45.60
2019-02-28T19:20:37.915Z,38.03
2019-02-28T19:25:41.464Z,38.40
2019-02-28T19:30:44.998Z,35.90
2019-02-28T19:35:48.468Z,35.73
2019-02-28T19:40:51.909Z,35.83
2019-02-28T19:45:56.292Z,29.43
2019-02-28T19:50:59.775Z,31.77
2019-02-28T19:56:03.205Z,29.23
2019-02-28T20:01:06.748Z,26.57
2019-02-28T20:06:10.201Z,25.50
2019-02-28T20:11:13.656Z,23.37
2019-02-28T20:16:17.275Z,21.50
2019-02-28T20:21:20.684Z,20.60
2019-02-28T20:26:24.177Z,22.60
2019-02-28T20:31:27.840Z,20.50
2019-02-28T20:36:31.359Z,17.90
2019-02-28T20:41:34.749Z,18.13
2019-02-28T20:46:38.283Z,21.27
2019-02-28T20:51:41.698Z,19.47
2019-02-28T20:56:45.139Z,17.93
2019-02-28T21:01:48.545Z,18.60
2019-02-28T21:06:51.965Z,22.63
2019-02-28T21:11:55.406Z,15.93
2019-02-28T21:16:59.059Z,16.37
2019-02-28T21:22:02.477Z,15.53
2019-02-28T21:27:06.254Z,13.10
2019-02-28T21:32:09.682Z,14.40
2019-02-28T21:37:13.145Z,13.83
2019-02-28T21:42:16.642Z,16.67
2019-02-28T21:47:20.048Z,16.30
2019-02-28T21:52:23.497Z,18.00
2019-02-28T21:57:26.919Z,17.60
2019-02-28T22:02:30.337Z,15.53
2019-02-28T22:07:33.802Z,19.60
2019-02-28T22:12:37.258Z,17.80
2019-02-28T22:17:40.703Z,17.13
2019-02-28T22:22:44.198Z,17.93
2019-02-28T22:27:47.628Z,16.87
2019-02-28T22:32:52.710Z,17.27
2019-02-28T22:37:56.148Z,17.27
2019-02-28T22:42:59.590Z,17.90
2019-02-28T22:48:03.084Z,18.60
2019-02-28T22:53:06.588Z,18.87
2019-02-28T22:58:13.216Z,17.27
2019-02-28T23:03:16.615Z,17.10
2019-02-28T23:08:20.116Z,17.00
2019-02-28T23:13:23.580Z,18.87
2019-02-28T23:18:27.020Z,15.63
2019-02-28T23:23:30.440Z,17.80
2019-02-28T23:28:36.824Z,19.33
2019-02-28T23:33:40.264Z,20.67
2019-02-28T23:38:43.714Z,21.40
2019-02-28T23:43:47.157Z,19.50
2019-02-28T23:48:50.613Z,21.53
2019-02-28T23:53:54.041Z,19.23
2019-02-28T23:58:57.472Z,19.60
